createdAt,value
2023-06-03T00:00:41.101Z,9.358614
2023-06-03T00:01:41.084Z,9.358652
2023-06-03T00:02:41.145Z,9.358557
2023-06-03T00:03:41.171Z,9.358518
2023-06-03T00:04:41.104Z,9.358558
2023-06-03T00:05:41.061Z,9.358510
2023-06-03T00:06:41.024Z,9.358542
2023-06-03T00:07:41.033Z,9.358506
2023-06-03T00:08:40.995Z,9.358541
2023-06-03T00:09:41.969Z,9.358564
2023-06-03T00:10:40.989Z,9.358548
2023-06-03T00:11:41.036Z,9.358510
2023-06-03T00:12:40.960Z,9.358433
2023-06-03T00:13:40.961Z,9.358517
2023-06-03T00:14:40.939Z,9.358547
2023-06-03T00:15:40.961Z,9.358597
2023-06-03T00:16:40.918Z,9.358605
2023-06-03T00:17:40.959Z,9.358640
2023-06-03T00:18:40.898Z,9.358562
2023-06-03T00:19:40.877Z,9.358557
2023-06-03T00:20:40.902Z,9.358608
2023-06-03T00:21:40.847Z,9.358598
2023-06-03T00:22:40.830Z,9.358606
2023-06-03T00:23:40.883Z,9.358608
2023-06-03T00:24:40.838Z,9.358632
2023-06-03T00:25:40.792Z,9.358603
2023-06-03T00:26:40.831Z,9.358623
2023-06-03T00:27:40.819Z,9.358577
2023-06-03T00:28:40.783Z,9.358517
2023-06-03T00:29:40.770Z,9.358473
2023-06-03T00:30:40.749Z,9.358521
2023-06-03T00:31:40.822Z,9.358567
2023-06-03T00:32:40.746Z,9.358515
2023-06-03T00:33:40.772Z,9.358497
2023-06-03T00:34:40.727Z,9.358542
2023-06-03T00:35:40.715Z,9.358539
2023-06-03T00:36:40.667Z,9.358582
2023-06-03T00:37:40.712Z,9.358605
2023-06-03T00:38:40.694Z,9.358506
2023-06-03T00:39:40.658Z,9.358466
2023-06-03T00:40:40.664Z,9.358428
2023-06-03T00:41:40.668Z,9.358421
2023-06-03T00:42:40.649Z,9.358454
2023-06-03T00:43:41.605Z,9.358464
2023-06-03T00:44:40.620Z,9.358545
2023-06-03T00:45:40.633Z,9.358576
2023-06-03T00:46:40.588Z,9.358543
2023-06-03T00:47:40.610Z,9.358568
2023-06-03T00:48:40.581Z,9.358529
2023-06-03T00:49:40.526Z,9.358549
2023-06-03T00:50:40.562Z,9.358564
2023-06-03T00:51:40.548Z,9.358529
2023-06-03T00:52:40.532Z,9.358530
2023-06-03T00:53:40.544Z,9.358528
2023-06-03T00:54:40.537Z,9.358501
2023-06-03T00:55:40.472Z,9.358470
2023-06-03T00:56:40.472Z,9.358425
2023-06-03T00:57:40.499Z,9.358498
2023-06-03T00:58:40.487Z,9.358536
2023-06-03T00:59:40.428Z,9.358535
2023-06-03T01:00:40.438Z,9.358500
2023-06-03T01:01:40.473Z,9.358530
2023-06-03T01:02:40.489Z,9.358585
2023-06-03T01:03:40.405Z,9.358582
2023-06-03T01:04:40.410Z,9.358549
2023-06-03T01:05:40.407Z,9.358501
2023-06-03T01:06:40.376Z,9.358520
2023-06-03T01:07:40.343Z,9.358549
2023-06-03T01:08:40.497Z,9.358561
2023-06-03T01:09:40.338Z,9.358559
2023-06-03T01:10:40.359Z,9.358506
2023-06-03T01:11:40.352Z,9.358541
2023-06-03T01:12:40.303Z,9.358547
2023-06-03T01:13:40.280Z,9.358548
2023-06-03T01:14:40.283Z,9.358498
2023-06-03T01:15:40.323Z,9.358567
2023-06-03T01:16:40.264Z,9.358517
2023-06-03T01:17:40.359Z,9.358519
2023-06-03T01:18:40.281Z,9.358528
2023-06-03T01:19:40.236Z,9.358498
2023-06-03T01:20:40.212Z,9.358539
2023-06-03T01:21:40.245Z,9.358491
2023-06-03T01:22:40.213Z,9.358489
2023-06-03T01:23:40.194Z,9.358521
2023-06-03T01:24:40.247Z,9.358477
2023-06-03T01:25:40.142Z,9.358511
2023-06-03T01:26:40.146Z,9.358533
2023-06-03T01:27:40.180Z,9.358511
2023-06-03T01:28:40.143Z,9.358477
2023-06-03T01:29:40.123Z,9.358489
2023-06-03T01:30:40.107Z,9.358533
2023-06-03T01:31:40.138Z,9.358565
2023-06-03T01:32:40.104Z,9.358601
2023-06-03T01:33:40.096Z,9.358535
2023-06-03T01:34:40.121Z,9.358495
2023-06-03T01:35:40.068Z,9.358547
2023-06-03T01:36:40.053Z,9.358563
2023-06-03T01:37:40.066Z,9.358538
2023-06-03T01:38:40.060Z,9.358561
2023-06-03T01:39:40.015Z,9.358526
2023-06-03T01:40:40.043Z,9.358561
2023-06-03T01:41:39.977Z,9.358521
2023-06-03T01:42:39.978Z,9.358517
2023-06-03T01:43:40.041Z,9.358490
2023-06-03T01:44:40.002Z,9.358472
2023-06-03T01:45:39.934Z,9.358495
2023-06-03T01:46:40.025Z,9.358522
2023-06-03T01:47:39.986Z,9.358509
2023-06-03T01:48:39.942Z,9.358476
2023-06-03T01:49:39.925Z,9.358475
2023-06-03T01:50:39.952Z,9.358460
2023-06-03T01:51:39.868Z,9.358465
2023-06-03T01:52:39.921Z,9.358495
2023-06-03T01:53:39.916Z,9.358552
2023-06-03T01:54:39.865Z,9.358525
2023-06-03T01:55:39.830Z,9.358506
2023-06-03T01:56:39.846Z,9.358515
2023-06-03T01:57:39.817Z,9.358506
2023-06-03T01:58:39.816Z,9.358476
2023-06-03T01:59:39.841Z,9.358450
2023-06-03T02:00:39.804Z,9.358462
2023-06-03T02:01:39.786Z,9.358484
2023-06-03T02:02:39.862Z,9.358485
2023-06-03T02:03:39.784Z,9.358521
2023-06-03T02:04:39.754Z,9.358547
2023-06-03T02:05:39.751Z,9.358573
2023-06-03T02:06:39.716Z,9.358539
2023-06-03T02:07:39.755Z,9.358540
2023-06-03T02:08:39.741Z,9.358517
2023-06-03T02:09:39.695Z,9.358491
2023-06-03T02:10:39.678Z,9.358505
2023-06-03T02:11:39.685Z,9.358552
2023-06-03T02:12:39.675Z,9.358483
2023-06-03T02:13:39.666Z,9.358525
2023-06-03T02:14:39.678Z,9.358494
2023-06-03T02:15:39.603Z,9.358455
2023-06-03T02:16:39.623Z,9.358477
2023-06-03T02:17:40.641Z,9.358481
2023-06-03T02:18:39.656Z,9.358488
2023-06-03T02:19:39.588Z,9.358498
2023-06-03T02:20:39.610Z,9.358477
2023-06-03T02:21:39.596Z,9.358480
2023-06-03T02:22:39.597Z,9.358507
2023-06-03T02:23:39.582Z,9.358504
2023-06-03T02:24:39.583Z,9.358505
2023-06-03T02:25:39.506Z,9.358532
2023-06-03T02:26:39.513Z,9.358537
2023-06-03T02:27:39.556Z,9.358543
2023-06-03T02:28:39.479Z,9.358565
2023-06-03T02:29:39.506Z,9.358497
2023-06-03T02:30:39.466Z,9.358482
2023-06-03T02:31:39.512Z,9.358460
2023-06-03T02:32:39.531Z,9.358481
2023-06-03T02:33:39.466Z,9.358510
2023-06-03T02:34:39.437Z,9.358551
2023-06-03T02:35:39.408Z,9.358617
2023-06-03T02:36:39.417Z,9.358580
2023-06-03T02:37:39.429Z,9.358565
2023-06-03T02:38:39.381Z,9.358539
2023-06-03T02:39:39.356Z,9.358599
2023-06-03T02:40:39.347Z,9.358570
2023-06-03T02:41:39.385Z,9.358559
2023-06-03T02:42:39.381Z,9.358528
2023-06-03T02:43:39.299Z,9.358532
2023-06-03T02:44:39.340Z,9.358519
2023-06-03T02:45:39.307Z,9.358544
2023-06-03T02:46:39.387Z,9.358557
2023-06-03T02:47:39.339Z,9.358507
2023-06-03T02:48:40.298Z,9.358516
2023-06-03T02:49:39.249Z,9.358502
2023-06-03T02:50:39.249Z,9.358507
2023-06-03T02:51:39.276Z,9.358531
2023-06-03T02:52:39.202Z,9.358530
2023-06-03T02:53:39.221Z,9.358568
2023-06-03T02:54:39.214Z,9.358617
2023-06-03T02:55:39.197Z,9.358600
2023-06-03T02:56:39.192Z,9.358560
2023-06-03T02:57:39.222Z,9.358508
2023-06-03T02:58:39.156Z,9.358550
2023-06-03T02:59:39.139Z,9.358570
2023-06-03T03:00:39.160Z,9.358556
2023-06-03T03:01:39.210Z,9.358510
2023-06-03T03:02:39.234Z,9.358483
2023-06-03T03:03:39.153Z,9.358474
2023-06-03T03:04:39.085Z,9.358480
2023-06-03T03:05:39.058Z,9.358481
2023-06-03T03:06:39.075Z,9.358541
2023-06-03T03:07:39.088Z,9.358524
2023-06-03T03:08:39.072Z,9.358573
2023-06-03T03:09:39.012Z,9.358588
2023-06-03T03:10:39.017Z,9.358500
2023-06-03T03:11:39.034Z,9.358564
2023-06-03T03:12:39.043Z,9.358647
2023-06-03T03:13:38.986Z,9.358485
2023-06-03T03:14:38.969Z,9.358490
2023-06-03T03:15:38.993Z,9.358462
2023-06-03T03:16:39.017Z,9.358526
2023-06-03T03:17:39.017Z,9.358573
2023-06-03T03:18:38.947Z,9.358563
2023-06-03T03:19:38.954Z,9.358554
2023-06-03T03:20:38.916Z,9.358567
2023-06-03T03:21:38.923Z,9.358531
2023-06-03T03:22:38.917Z,9.358493
2023-06-03T03:23:38.927Z,9.358516
2023-06-03T03:24:38.894Z,9.358537
2023-06-03T03:25:38.893Z,9.358568
2023-06-03T03:26:38.866Z,9.358637
2023-06-03T03:27:38.890Z,9.358615
2023-06-03T03:28:38.856Z,9.358488
2023-06-03T03:29:38.806Z,9.358459
2023-06-03T03:30:38.838Z,9.358494
2023-06-03T03:31:39.886Z,9.358496
2023-06-03T03:32:38.863Z,9.358533
2023-06-03T03:33:38.801Z,9.358507
2023-06-03T03:34:38.796Z,9.358459
2023-06-03T03:35:38.741Z,9.358485
2023-06-03T03:36:38.765Z,9.358472
2023-06-03T03:37:38.775Z,9.358492
2023-06-03T03:38:38.735Z,9.358524
2023-06-03T03:39:38.712Z,9.358568
2023-06-03T03:40:38.742Z,9.358504
2023-06-03T03:41:38.692Z,9.358474
2023-06-03T03:42:38.709Z,9.358479
2023-06-03T03:43:38.726Z,9.358521
2023-06-03T03:44:38.665Z,9.358551
2023-06-03T03:45:38.668Z,9.358576
2023-06-03T03:46:38.686Z,9.358589
2023-06-03T03:47:38.708Z,9.358603
2023-06-03T03:48:38.621Z,9.358525
2023-06-03T03:49:38.641Z,9.358540
2023-06-03T03:50:38.613Z,9.358520
2023-06-03T03:51:38.600Z,9.358620
2023-06-03T03:52:38.587Z,9.358588
2023-06-03T03:53:38.593Z,9.358550
2023-06-03T03:54:38.593Z,9.358558
2023-06-03T03:55:38.524Z,9.358500
2023-06-03T03:56:41.270Z,9.358552
2023-06-03T03:57:38.501Z,9.358548
2023-06-03T03:58:38.559Z,9.358585
2023-06-03T03:59:38.537Z,9.358575
2023-06-03T04:00:38.497Z,9.358603
2023-06-03T04:01:38.536Z,9.358586
2023-06-03T04:02:38.594Z,9.358597
2023-06-03T04:03:38.535Z,9.358585
2023-06-03T04:04:38.446Z,9.358521
2023-06-03T04:05:38.494Z,9.358497
2023-06-03T04:06:38.473Z,9.358511
2023-06-03T04:07:38.398Z,9.358546
2023-06-03T04:08:38.421Z,9.358602
2023-06-03T04:09:38.448Z,9.358628
2023-06-03T04:10:38.422Z,9.358589
2023-06-03T04:11:38.367Z,9.358586
2023-06-03T04:12:38.413Z,9.358547
2023-06-03T04:13:38.382Z,9.358553
2023-06-03T04:14:38.350Z,9.358563
2023-06-03T04:15:38.376Z,9.358566
2023-06-03T04:16:38.352Z,9.358566
2023-06-03T04:17:38.362Z,9.358608
2023-06-03T04:18:38.320Z,9.358599
2023-06-03T04:19:38.582Z,9.358673
2023-06-03T04:20:38.284Z,9.358592
2023-06-03T04:21:39.274Z,9.358575
2023-06-03T04:22:38.250Z,9.358576
2023-06-03T04:23:38.301Z,9.358554
2023-06-03T04:24:38.274Z,9.358604
2023-06-03T04:25:38.207Z,9.358584
2023-06-03T04:26:38.216Z,9.358609
2023-06-03T04:27:38.232Z,9.358479
2023-06-03T04:28:38.171Z,9.358520
2023-06-03T04:29:38.220Z,9.358517
2023-06-03T04:30:38.194Z,9.358578
2023-06-03T04:31:38.216Z,9.358587
2023-06-03T04:32:38.223Z,9.358572
2023-06-03T04:33:38.160Z,9.358521
2023-06-03T04:34:38.142Z,9.358603
2023-06-03T04:35:38.120Z,9.358629
2023-06-03T04:36:38.137Z,9.358591
2023-06-03T04:37:38.196Z,9.358613
2023-06-03T04:38:38.104Z,9.358585
2023-06-03T04:39:38.088Z,9.358532
2023-06-03T04:40:38.073Z,9.358569
2023-06-03T04:41:38.032Z,9.358522
2023-06-03T04:42:38.075Z,9.358571
2023-06-03T04:43:38.041Z,9.358639
2023-06-03T04:44:38.022Z,9.358578
2023-06-03T04:45:39.008Z,9.358555
2023-06-03T04:46:38.054Z,9.358554
2023-06-03T04:47:38.027Z,9.358556
2023-06-03T04:48:37.979Z,9.358577
2023-06-03T04:49:37.945Z,9.358568
2023-06-03T04:50:37.943Z,9.358606
2023-06-03T04:51:37.997Z,9.358587
2023-06-03T04:52:37.906Z,9.358539
2023-06-03T04:53:37.928Z,9.358567
2023-06-03T04:54:37.926Z,9.358588
2023-06-03T04:55:37.903Z,9.358565
2023-06-03T04:56:37.878Z,9.358581
2023-06-03T04:57:37.902Z,9.358649
2023-06-03T04:58:37.874Z,9.358646
2023-06-03T04:59:37.837Z,9.358590
2023-06-03T05:00:37.869Z,9.358584
2023-06-03T05:01:37.968Z,9.358549
2023-06-03T05:02:37.861Z,9.358567
2023-06-03T05:03:37.836Z,9.358540
2023-06-03T05:04:37.786Z,9.358484
2023-06-03T05:05:37.780Z,9.358496
2023-06-03T05:06:37.960Z,9.358461
2023-06-03T05:07:37.787Z,9.358479
2023-06-03T05:08:37.774Z,9.358568
2023-06-03T05:09:37.753Z,9.358552
2023-06-03T05:10:37.754Z,9.358546
2023-06-03T05:11:37.745Z,9.358545
2023-06-03T05:12:37.693Z,9.358525
2023-06-03T05:13:37.720Z,9.358494
2023-06-03T05:14:37.691Z,9.358503
2023-06-03T05:15:37.651Z,9.358482
2023-06-03T05:16:37.694Z,9.358455
2023-06-03T05:17:37.758Z,9.358479
2023-06-03T05:18:37.642Z,9.358496
2023-06-03T05:19:37.624Z,9.358479
2023-06-03T05:20:37.614Z,9.358507
2023-06-03T05:21:37.637Z,9.358511
2023-06-03T05:22:37.600Z,9.358571
2023-06-03T05:23:37.660Z,9.358634
2023-06-03T05:24:37.622Z,9.358582
2023-06-03T05:25:37.560Z,9.358530
2023-06-03T05:26:37.544Z,9.358551
2023-06-03T05:27:37.570Z,9.358629
2023-06-03T05:28:37.523Z,9.358533
2023-06-03T05:29:37.531Z,9.358478
2023-06-03T05:30:37.522Z,9.358481
2023-06-03T05:31:37.554Z,9.358595
2023-06-03T05:32:39.609Z,9.358499
2023-06-03T05:33:37.494Z,9.358539
2023-06-03T05:34:37.536Z,9.358521
2023-06-03T05:35:37.422Z,9.358522
2023-06-03T05:36:37.437Z,9.358528
2023-06-03T05:37:37.471Z,9.358535
2023-06-03T05:38:37.441Z,9.358582
2023-06-03T05:39:37.379Z,9.358488
2023-06-03T05:40:37.459Z,9.358501
2023-06-03T05:41:37.966Z,9.358548
2023-06-03T05:42:37.365Z,9.358563
2023-06-03T05:43:37.387Z,9.358582
2023-06-03T05:44:37.359Z,9.358595
2023-06-03T05:45:37.323Z,9.358596
2023-06-03T05:46:37.489Z,9.358576
2023-06-03T05:47:37.362Z,9.358557
2023-06-03T05:48:38.333Z,9.358624
2023-06-03T05:49:38.317Z,9.358584
2023-06-03T05:50:37.278Z,9.358519
2023-06-03T05:51:37.248Z,9.358516
2023-06-03T05:52:37.270Z,9.358523
2023-06-03T05:53:37.257Z,9.358550
2023-06-03T05:54:37.244Z,9.358549
2023-06-03T05:55:37.230Z,9.358566
2023-06-03T05:56:37.228Z,9.358584
2023-06-03T05:57:37.177Z,9.358536
2023-06-03T05:58:37.209Z,9.358485
2023-06-03T05:59:37.196Z,9.358505
2023-06-03T06:00:37.164Z,9.358508
2023-06-03T06:01:37.152Z,9.358541
2023-06-03T06:02:37.184Z,9.358551
2023-06-03T06:03:37.275Z,9.358550
2023-06-03T06:04:37.155Z,9.358644
2023-06-03T06:05:37.118Z,9.358671
2023-06-03T06:06:37.100Z,9.358595
2023-06-03T06:07:37.096Z,9.358529
2023-06-03T06:08:37.088Z,9.358526
2023-06-03T06:09:39.063Z,9.358607
2023-06-03T06:10:38.050Z,9.358489
2023-06-03T06:11:37.040Z,9.358504
2023-06-03T06:12:37.040Z,9.358564
2023-06-03T06:13:37.022Z,9.358587
2023-06-03T06:14:37.045Z,9.358482
2023-06-03T06:15:37.062Z,9.358484
2023-06-03T06:16:37.019Z,9.358527
2023-06-03T06:17:37.000Z,9.358467
2023-06-03T06:18:36.972Z,9.358472
2023-06-03T06:19:36.968Z,9.358480
2023-06-03T06:20:36.975Z,9.358498
2023-06-03T06:21:36.917Z,9.358492
2023-06-03T06:22:36.916Z,9.358492
2023-06-03T06:23:37.039Z,9.358514
2023-06-03T06:24:36.889Z,9.358498
2023-06-03T06:25:36.875Z,9.358466
2023-06-03T06:26:36.860Z,9.358486
2023-06-03T06:27:36.881Z,9.358569
2023-06-03T06:28:36.877Z,9.358498
2023-06-03T06:29:36.844Z,9.358509
2023-06-03T06:30:36.837Z,9.358516
2023-06-03T06:31:36.862Z,9.358525
2023-06-03T06:32:36.818Z,9.358605
2023-06-03T06:33:36.799Z,9.358634
2023-06-03T06:34:36.829Z,9.358549
2023-06-03T06:35:36.747Z,9.358531
2023-06-03T06:36:36.774Z,9.358537
2023-06-03T06:37:36.746Z,9.358552
2023-06-03T06:38:36.755Z,9.358514
2023-06-03T06:39:36.735Z,9.358488
2023-06-03T06:40:36.720Z,9.358516
2023-06-03T06:41:36.686Z,9.358478
2023-06-03T06:42:36.693Z,9.358447
2023-06-03T06:43:36.711Z,9.358455
2023-06-03T06:44:36.659Z,9.358454
2023-06-03T06:45:36.704Z,9.358442
2023-06-03T06:46:36.659Z,9.358451
2023-06-03T06:47:36.641Z,9.358523
2023-06-03T06:48:36.629Z,9.358513
2023-06-03T06:49:36.629Z,9.358508
2023-06-03T06:50:36.626Z,9.358495
2023-06-03T06:51:36.603Z,9.358547
2023-06-03T06:52:37.763Z,9.358588
2023-06-03T06:53:36.685Z,9.358558
2023-06-03T06:54:36.581Z,9.358585
2023-06-03T06:55:36.548Z,9.358632
2023-06-03T06:56:36.579Z,9.358639
2023-06-03T06:57:36.540Z,9.358704
2023-06-03T06:58:36.514Z,9.358562
2023-06-03T06:59:36.488Z,9.358407
2023-06-03T07:00:36.532Z,9.358448
2023-06-03T07:01:36.504Z,9.358575
2023-06-03T07:02:36.550Z,9.358558
2023-06-03T07:03:36.588Z,9.358580
2023-06-03T07:04:36.467Z,9.358562
2023-06-03T07:05:36.429Z,9.358559
2023-06-03T07:06:36.459Z,9.358586
2023-06-03T07:07:36.461Z,9.358587
2023-06-03T07:08:36.483Z,9.358562
2023-06-03T07:09:37.998Z,9.358568
2023-06-03T07:10:36.403Z,9.358567
2023-06-03T07:11:36.373Z,9.358472
2023-06-03T07:12:36.385Z,9.358452
2023-06-03T07:13:36.372Z,9.358475
2023-06-03T07:14:36.357Z,9.358531
2023-06-03T07:15:36.317Z,9.358507
2023-06-03T07:16:36.378Z,9.358496
2023-06-03T07:17:36.371Z,9.358527
2023-06-03T07:18:36.325Z,9.358537
2023-06-03T07:19:36.316Z,9.358506
2023-06-03T07:20:36.330Z,9.358536
2023-06-03T07:21:36.261Z,9.358531
2023-06-03T07:22:36.286Z,9.358478
2023-06-03T07:23:36.295Z,9.358527
2023-06-03T07:24:36.440Z,9.358569
2023-06-03T07:25:37.238Z,9.358571
2023-06-03T07:26:36.247Z,9.358614
2023-06-03T07:27:36.231Z,9.358584
2023-06-03T07:28:36.254Z,9.358562
2023-06-03T07:29:36.177Z,9.358580
2023-06-03T07:30:36.178Z,9.358549
2023-06-03T07:31:36.254Z,9.358569
2023-06-03T07:32:36.195Z,9.358637
2023-06-03T07:33:36.178Z,9.358649
2023-06-03T07:34:36.177Z,9.358617
2023-06-03T07:35:36.106Z,9.358591
2023-06-03T07:36:36.137Z,9.358556
2023-06-03T07:37:36.127Z,9.358593
2023-06-03T07:38:36.089Z,9.358615
2023-06-03T07:39:36.121Z,9.358583
2023-06-03T07:40:36.116Z,9.358569
2023-06-03T07:41:36.052Z,9.358541
2023-06-03T07:42:36.032Z,9.358535
2023-06-03T07:43:36.088Z,9.358577
2023-06-03T07:44:36.084Z,9.358583
2023-06-03T07:45:36.018Z,9.358577
2023-06-03T07:46:36.050Z,9.358603
2023-06-03T07:47:36.076Z,9.358633
2023-06-03T07:48:35.977Z,9.358614
2023-06-03T07:49:36.035Z,9.358582
2023-06-03T07:50:35.949Z,9.358507
2023-06-03T07:51:36.001Z,9.358519
2023-06-03T07:52:35.948Z,9.358536
2023-06-03T07:53:35.934Z,9.358508
2023-06-03T07:54:35.954Z,9.358537
2023-06-03T07:55:35.913Z,9.358604
2023-06-03T07:56:35.911Z,9.358587
2023-06-03T07:57:35.889Z,9.358555
2023-06-03T07:58:35.923Z,9.358512
2023-06-03T07:59:35.867Z,9.358525
2023-06-03T08:00:35.923Z,9.358456
2023-06-03T08:01:35.871Z,9.358487
2023-06-03T08:02:35.994Z,9.358547
2023-06-03T08:03:35.941Z,9.358510
2023-06-03T08:04:35.822Z,9.358524
2023-06-03T08:05:35.847Z,9.358452
2023-06-03T08:06:35.840Z,9.358480
2023-06-03T08:07:35.775Z,9.358500
2023-06-03T08:08:35.766Z,9.358512
2023-06-03T08:09:35.757Z,9.358541
2023-06-03T08:10:35.739Z,9.358526
2023-06-03T08:11:35.792Z,9.358541
2023-06-03T08:12:36.718Z,9.358530
2023-06-03T08:13:36.744Z,9.358510
2023-06-03T08:14:35.754Z,9.358498
2023-06-03T08:15:35.711Z,9.358531
2023-06-03T08:16:35.813Z,9.358521
2023-06-03T08:17:35.708Z,9.358505
2023-06-03T08:18:35.669Z,9.358507
2023-06-03T08:19:35.676Z,9.358541
2023-06-03T08:20:35.666Z,9.358516
2023-06-03T08:21:35.636Z,9.358448
2023-06-03T08:22:35.632Z,9.358432
2023-06-03T08:23:35.637Z,9.358508
2023-06-03T08:24:35.588Z,9.358549
2023-06-03T08:25:35.635Z,9.358675
2023-06-03T08:26:35.597Z,9.358616
2023-06-03T08:27:35.573Z,9.358564
2023-06-03T08:28:35.563Z,9.358565
2023-06-03T08:29:35.559Z,9.358515
2023-06-03T08:30:35.540Z,9.358569
2023-06-03T08:31:35.556Z,9.358527
2023-06-03T08:32:35.549Z,9.358541
2023-06-03T08:33:35.508Z,9.358553
2023-06-03T08:34:35.513Z,9.358578
2023-06-03T08:35:35.497Z,9.358518
2023-06-03T08:36:35.492Z,9.358558
2023-06-03T08:37:35.519Z,9.358525
2023-06-03T08:38:35.485Z,9.358527
2023-06-03T08:39:35.453Z,9.358535
2023-06-03T08:40:35.444Z,9.358545
2023-06-03T08:41:35.433Z,9.358577
2023-06-03T08:42:35.411Z,9.358540
2023-06-03T08:43:35.438Z,9.358543
2023-06-03T08:44:35.389Z,9.358574
2023-06-03T08:45:35.422Z,9.358602
2023-06-03T08:46:35.473Z,9.358540
2023-06-03T08:47:35.416Z,9.358516
2023-06-03T08:48:35.350Z,9.358520
2023-06-03T08:49:35.400Z,9.358524
2023-06-03T08:50:35.324Z,9.358563
2023-06-03T08:51:35.318Z,9.358615
2023-06-03T08:52:35.325Z,9.358603
2023-06-03T08:53:35.378Z,9.358563
2023-06-03T08:54:35.324Z,9.358515
2023-06-03T08:55:35.344Z,9.358476
2023-06-03T08:56:35.352Z,9.358566
2023-06-03T08:57:35.266Z,9.358520
2023-06-03T08:58:35.264Z,9.358546
2023-06-03T08:59:35.248Z,9.358529
2023-06-03T09:00:35.228Z,9.358518
2023-06-03T09:01:35.305Z,9.358545
2023-06-03T09:02:35.263Z,9.358575
2023-06-03T09:03:35.288Z,9.358597
2023-06-03T09:04:35.239Z,9.358571
2023-06-03T09:05:35.180Z,9.358515
2023-06-03T09:06:35.158Z,9.358541
2023-06-03T09:07:35.187Z,9.358619
2023-06-03T09:08:35.141Z,9.358620
2023-06-03T09:09:35.172Z,9.358585
2023-06-03T09:10:35.147Z,9.358576
2023-06-03T09:11:35.110Z,9.358605
2023-06-03T09:12:35.133Z,9.358563
2023-06-03T09:13:35.084Z,9.358471
2023-06-03T09:14:35.099Z,9.358520
2023-06-03T09:15:35.162Z,9.358517
2023-06-03T09:16:35.160Z,9.358531
2023-06-03T09:17:35.117Z,9.358483
2023-06-03T09:18:35.069Z,9.358477
2023-06-03T09:19:35.027Z,9.358541
2023-06-03T09:20:35.038Z,9.358528
2023-06-03T09:21:35.120Z,9.358539
2023-06-03T09:22:35.000Z,9.358591
2023-06-03T09:23:35.069Z,9.358581
2023-06-03T09:24:34.972Z,9.358540
2023-06-03T09:25:34.979Z,9.358523
2023-06-03T09:26:34.962Z,9.358488
2023-06-03T09:27:34.940Z,9.358524
2023-06-03T09:28:34.983Z,9.358552
2023-06-03T09:29:34.919Z,9.358501
2023-06-03T09:30:34.952Z,9.358521
2023-06-03T09:31:34.967Z,9.358523
2023-06-03T09:32:34.919Z,9.358508
2023-06-03T09:33:34.901Z,9.358529
2023-06-03T09:34:34.882Z,9.358529
2023-06-03T09:35:34.869Z,9.358559
2023-06-03T09:36:34.899Z,9.358528
2023-06-03T09:37:34.922Z,9.358521
2023-06-03T09:38:34.817Z,9.358514
2023-06-03T09:39:34.872Z,9.358539
2023-06-03T09:40:34.820Z,9.358503
2023-06-03T09:41:34.807Z,9.358512
2023-06-03T09:42:34.893Z,9.358560
2023-06-03T09:43:34.787Z,9.358571
2023-06-03T09:44:34.793Z,9.358626
2023-06-03T09:45:35.762Z,9.358521
2023-06-03T09:46:34.806Z,9.358517
2023-06-03T09:47:34.770Z,9.358489
2023-06-03T09:48:34.762Z,9.358480
2023-06-03T09:49:49.687Z,9.358459
2023-06-03T09:50:36.697Z,9.358485
2023-06-03T09:51:34.725Z,9.358498
2023-06-03T09:52:34.710Z,9.358516
2023-06-03T09:53:34.671Z,9.358507
2023-06-03T09:54:34.678Z,9.358525
2023-06-03T09:55:34.826Z,9.358508
2023-06-03T09:56:34.651Z,9.358602
2023-06-03T09:57:34.626Z,9.358616
2023-06-03T09:58:34.653Z,9.358550
2023-06-03T09:59:34.600Z,9.358499
2023-06-03T10:00:34.626Z,9.358467
2023-06-03T10:01:34.681Z,9.358502
2023-06-03T10:02:34.665Z,9.358518
2023-06-03T10:03:34.611Z,9.358519
2023-06-03T10:04:34.584Z,9.358503
2023-06-03T10:05:34.550Z,9.358539
2023-06-03T10:06:34.541Z,9.358523
2023-06-03T10:07:34.578Z,9.358483
2023-06-03T10:08:34.516Z,9.358484
2023-06-03T10:09:34.487Z,9.358544
2023-06-03T10:10:34.732Z,9.358562
2023-06-03T10:11:34.544Z,9.358554
2023-06-03T10:12:34.467Z,9.358519
2023-06-03T10:13:34.468Z,9.358501
2023-06-03T10:14:34.468Z,9.358520
2023-06-03T10:15:34.483Z,9.358539
2023-06-03T10:16:34.557Z,9.358511
2023-06-03T10:17:37.000Z,9.358473
2023-06-03T10:18:35.462Z,9.358501
2023-06-03T10:19:34.473Z,9.358397
2023-06-03T10:20:34.397Z,9.358407
2023-06-03T10:21:34.370Z,9.358452
2023-06-03T10:22:34.388Z,9.358471
2023-06-03T10:23:34.415Z,9.358511
2023-06-03T10:24:34.369Z,9.358533
2023-06-03T10:25:35.333Z,9.358474
2023-06-03T10:26:34.308Z,9.358518
2023-06-03T10:27:34.306Z,9.358530
2023-06-03T10:28:34.297Z,9.358465
2023-06-03T10:29:34.277Z,9.358419
2023-06-03T10:30:34.293Z,9.358434
2023-06-03T10:31:34.320Z,9.358418
2023-06-03T10:32:34.301Z,9.358461
2023-06-03T10:33:34.258Z,9.358480
2023-06-03T10:34:34.279Z,9.358521
2023-06-03T10:35:34.220Z,9.358472
2023-06-03T10:36:34.205Z,9.358468
2023-06-03T10:37:34.225Z,9.358452
2023-06-03T10:38:34.238Z,9.358440
2023-06-03T10:39:34.188Z,9.358475
2023-06-03T10:40:34.185Z,9.358481
2023-06-03T10:41:34.183Z,9.358497
2023-06-03T10:42:34.172Z,9.358503
2023-06-03T10:43:34.149Z,9.358416
2023-06-03T10:44:34.155Z,9.358509
2023-06-03T10:45:34.123Z,9.358520
2023-06-03T10:46:34.187Z,9.358396
2023-06-03T10:47:34.199Z,9.358416
2023-06-03T10:48:34.155Z,9.358467
2023-06-03T10:49:34.078Z,9.358478
2023-06-03T10:50:34.059Z,9.358535
2023-06-03T10:51:34.041Z,9.358496
2023-06-03T10:52:34.071Z,9.358418
2023-06-03T10:53:34.030Z,9.358408
2023-06-03T10:54:34.025Z,9.358397
2023-06-03T10:55:34.058Z,9.358446
2023-06-03T10:56:34.065Z,9.358472
2023-06-03T10:57:33.974Z,9.358482
2023-06-03T10:58:33.984Z,9.358519
2023-06-03T10:59:34.016Z,9.358445
2023-06-03T11:00:33.965Z,9.358405
2023-06-03T11:01:34.011Z,9.358425
2023-06-03T11:02:33.962Z,9.358475
2023-06-03T11:03:34.085Z,9.358590
2023-06-03T11:04:33.963Z,9.358607
2023-06-03T11:05:33.921Z,9.358586
2023-06-03T11:06:33.905Z,9.358551
2023-06-03T11:07:33.945Z,9.358557
2023-06-03T11:08:33.892Z,9.358537
2023-06-03T11:09:33.900Z,9.358630
2023-06-03T11:10:33.865Z,9.358613
2023-06-03T11:11:33.902Z,9.358580
2023-06-03T11:12:33.833Z,9.358664
2023-06-03T11:13:33.895Z,9.358626
2023-06-03T11:14:33.830Z,9.358558
2023-06-03T11:15:33.864Z,9.358606
2023-06-03T11:16:33.829Z,9.358631
2023-06-03T11:17:33.811Z,9.358594
2023-06-03T11:18:33.791Z,9.358585
2023-06-03T11:19:33.825Z,9.358634
2023-06-03T11:20:33.754Z,9.358580
2023-06-03T11:21:33.746Z,9.358604
2023-06-03T11:22:33.748Z,9.358615
2023-06-03T11:23:33.786Z,9.358544
2023-06-03T11:24:33.765Z,9.358551
2023-06-03T11:25:33.699Z,9.358573
2023-06-03T11:26:33.749Z,9.358590
2023-06-03T11:27:33.681Z,9.358656
2023-06-03T11:28:33.722Z,9.358647
2023-06-03T11:29:33.677Z,9.358626
2023-06-03T11:30:33.672Z,9.358602
2023-06-03T11:31:33.716Z,9.358553
2023-06-03T11:32:33.683Z,9.358541
2023-06-03T11:33:33.597Z,9.358560
2023-06-03T11:34:33.606Z,9.358491
2023-06-03T11:35:33.608Z,9.358465
2023-06-03T11:36:33.586Z,9.358477
2023-06-03T11:37:33.585Z,9.358475
2023-06-03T11:38:33.561Z,9.358502
2023-06-03T11:39:33.572Z,9.358510
2023-06-03T11:40:33.565Z,9.358489
2023-06-03T11:41:33.545Z,9.358475
2023-06-03T11:42:33.519Z,9.358484
2023-06-03T11:43:33.533Z,9.358497
2023-06-03T11:44:35.659Z,9.358468